createdAt,value
2023-01-19T00:00:23.925Z,21.45
2023-01-19T00:02:50.489Z,21.05
2023-01-19T00:05:18.312Z,20.35
2023-01-19T00:07:44.873Z,18.80
2023-01-19T00:10:11.395Z,18.50
2023-01-19T00:12:37.913Z,23.70
2023-01-19T00:15:04.964Z,23.75
2023-01-19T00:17:31.342Z,20.77
2023-01-19T00:19:57.826Z,23.30
2023-01-19T00:22:25.614Z,22.33
2023-01-19T00:24:51.997Z,21.88
2023-01-19T00:27:18.382Z,19.63
2023-01-19T00:29:44.751Z,20.58
2023-01-19T00:32:11.128Z,15.05
2023-01-19T00:34:37.523Z,25.00
2023-01-19T00:37:03.913Z,22.55
2023-01-19T00:39:31.700Z,24.10
2023-01-19T00:41:58.120Z,20.30
2023-01-19T00:44:24.672Z,26.08
2023-01-19T00:46:51.072Z,21.15
2023-01-19T00:49:17.525Z,23.33
2023-01-19T00:51:43.915Z,24.55
2023-01-19T00:54:10.437Z,21.30
2023-01-19T00:56:38.308Z,23.63
2023-01-19T00:59:04.750Z,22.30
2023-01-19T01:01:45.095Z,22.52
2023-01-19T01:04:13.187Z,18.95
2023-01-19T01:06:39.657Z,22.52
2023-01-19T01:09:06.154Z,19.20
2023-01-19T01:11:32.544Z,24.55
2023-01-19T01:14:00.343Z,24.33
2023-01-19T01:16:26.903Z,24.23
2023-01-19T01:18:53.319Z,25.52
2023-01-19T01:21:19.909Z,23.83
2023-01-19T01:23:46.318Z,25.88
2023-01-19T01:26:12.737Z,26.00
2023-01-19T01:28:39.133Z,23.13
2023-01-19T01:31:06.897Z,23.10
2023-01-19T01:33:40.520Z,26.35
2023-01-19T01:36:08.358Z,21.98
2023-01-19T01:38:34.757Z,24.35
2023-01-19T01:41:01.195Z,22.25
2023-01-19T01:43:41.255Z,23.65
2023-01-19T01:46:09.107Z,22.63
2023-01-19T01:48:36.223Z,25.88
2023-01-19T01:51:04.068Z,28.33
2023-01-19T01:53:31.860Z,24.25
2023-01-19T01:55:59.605Z,26.02
2023-01-19T01:58:26.521Z,26.45
2023-01-19T02:00:53.215Z,24.67
2023-01-19T02:03:22.493Z,24.45
2023-01-19T02:05:49.087Z,25.63
2023-01-19T02:08:17.239Z,23.90
2023-01-19T02:10:44.094Z,22.98
2023-01-19T02:13:10.548Z,25.88
2023-01-19T02:15:36.915Z,24.13
2023-01-19T02:18:03.687Z,29.58
2023-01-19T02:20:31.705Z,21.67
2023-01-19T02:23:00.850Z,20.95
2023-01-19T02:25:28.983Z,19.90
2023-01-19T02:27:55.454Z,24.00
2023-01-19T02:30:21.907Z,27.52
2023-01-19T02:32:48.807Z,24.58
2023-01-19T02:35:15.528Z,23.63
2023-01-19T02:37:43.032Z,18.70
2023-01-19T02:40:11.340Z,23.27
2023-01-19T02:42:41.797Z,23.65
2023-01-19T02:45:09.154Z,22.38
2023-01-19T02:47:38.970Z,24.60
2023-01-19T02:50:25.924Z,21.75
2023-01-19T02:52:55.512Z,24.67
2023-01-19T02:55:24.456Z,21.95
2023-01-19T02:57:57.603Z,24.25
2023-01-19T03:00:28.279Z,22.33
2023-01-19T03:03:00.244Z,23.15
2023-01-19T03:05:31.064Z,22.85
2023-01-19T03:08:00.638Z,22.80
2023-01-19T03:10:30.930Z,21.30
2023-01-19T03:13:00.602Z,19.83
2023-01-19T03:15:30.538Z,20.60
2023-01-19T03:17:58.061Z,23.17
2023-01-19T03:20:24.882Z,23.40
2023-01-19T03:22:53.978Z,25.58
2023-01-19T03:25:21.182Z,23.17
2023-01-19T03:27:48.457Z,22.42
2023-01-19T03:30:18.016Z,22.65
2023-01-19T03:32:48.177Z,33.03
2023-01-19T03:35:15.412Z,21.85
2023-01-19T03:37:44.079Z,21.00
2023-01-19T03:40:11.690Z,25.05
2023-01-19T03:42:38.810Z,24.08
2023-01-19T03:45:06.452Z,25.15
2023-01-19T03:47:34.851Z,23.98
2023-01-19T03:50:02.191Z,23.00
2023-01-19T03:52:29.112Z,22.98
2023-01-19T03:54:55.804Z,26.60
2023-01-19T03:57:22.218Z,24.50
2023-01-19T03:59:48.629Z,25.05
2023-01-19T04:02:15.153Z,25.17
2023-01-19T04:04:43.012Z,25.45
2023-01-19T04:07:10.105Z,25.48
2023-01-19T04:09:36.623Z,22.45
2023-01-19T04:12:02.977Z,27.65
2023-01-19T04:14:29.367Z,26.83
2023-01-19T04:16:55.747Z,22.50
2023-01-19T04:19:22.174Z,24.75
2023-01-19T04:21:49.950Z,23.88
2023-01-19T04:24:16.357Z,21.77
2023-01-19T04:26:42.829Z,25.80
2023-01-19T04:29:09.236Z,19.73
2023-01-19T04:31:35.713Z,21.50
2023-01-19T04:34:02.200Z,20.52
2023-01-19T04:36:28.625Z,24.17
2023-01-19T04:38:56.392Z,20.20
2023-01-19T04:41:22.731Z,19.67
2023-01-19T04:43:49.152Z,19.13
2023-01-19T04:46:15.571Z,16.75
2023-01-19T04:48:42.295Z,16.65
2023-01-19T04:51:08.715Z,17.65
2023-01-19T04:53:35.124Z,16.67
2023-01-19T04:56:02.854Z,18.13
2023-01-19T04:58:29.241Z,16.48
2023-01-19T05:00:55.619Z,14.25
2023-01-19T05:03:22.243Z,17.52
2023-01-19T05:05:48.703Z,18.48
2023-01-19T05:08:15.188Z,14.15
2023-01-19T05:10:41.610Z,13.50
2023-01-19T05:13:09.468Z,13.77
2023-01-19T05:15:35.850Z,14.70
2023-01-19T05:18:02.289Z,10.75
2023-01-19T05:20:28.649Z,12.02
2023-01-19T05:22:55.131Z,12.80
2023-01-19T05:25:21.551Z,11.82
2023-01-19T05:27:47.995Z,10.35
2023-01-19T05:30:16.230Z,9.75
2023-01-19T05:32:42.696Z,10.15
2023-01-19T05:35:09.653Z,9.68
2023-01-19T05:37:36.183Z,10.52
2023-01-19T05:40:02.742Z,9.95
2023-01-19T05:42:30.839Z,10.10
2023-01-19T05:44:58.410Z,12.80
2023-01-19T05:47:26.334Z,13.90
2023-01-19T05:49:55.380Z,11.35
2023-01-19T05:52:21.785Z,11.57
2023-01-19T05:54:48.170Z,14.55
2023-01-19T05:57:14.642Z,15.65
2023-01-19T05:59:41.046Z,13.52
2023-01-19T06:02:07.554Z,15.05
2023-01-19T06:04:35.473Z,15.68
2023-01-19T06:07:01.961Z,17.85
2023-01-19T06:09:28.436Z,16.25
2023-01-19T06:11:54.880Z,15.52
2023-01-19T06:14:21.381Z,16.52
2023-01-19T06:16:47.886Z,16.50
2023-01-19T06:19:14.282Z,18.00
2023-01-19T06:21:42.050Z,17.10
2023-01-19T06:24:09.135Z,16.35
2023-01-19T06:26:35.537Z,15.50
2023-01-19T06:29:02.175Z,15.80
2023-01-19T06:31:28.847Z,12.32
2023-01-19T06:33:55.473Z,15.25
2023-01-19T06:36:21.830Z,15.48
2023-01-19T06:38:49.639Z,17.52
2023-01-19T06:41:15.996Z,14.30
2023-01-19T06:43:42.438Z,19.98
2023-01-19T06:46:09.208Z,17.58
2023-01-19T06:48:35.647Z,18.80
2023-01-19T06:51:01.989Z,17.38
2023-01-19T06:53:28.509Z,15.60
2023-01-19T06:55:59.622Z,14.05
2023-01-19T06:58:27.009Z,15.95
2023-01-19T07:00:53.613Z,15.15
2023-01-19T07:03:21.400Z,14.07
2023-01-19T07:05:50.686Z,13.93
2023-01-19T07:08:17.137Z,13.18
2023-01-19T07:11:26.922Z,14.73
2023-01-19T07:13:31.524Z,12.20
2023-01-19T07:15:58.443Z,14.82
2023-01-19T07:18:25.310Z,15.32
2023-01-19T07:20:51.720Z,14.38
2023-01-19T07:23:18.126Z,13.70
2023-01-19T07:25:44.926Z,15.50
2023-01-19T07:28:11.279Z,18.80
2023-01-19T07:30:39.028Z,13.80
2023-01-19T07:33:05.451Z,16.55
2023-01-19T07:35:31.963Z,21.00
2023-01-19T07:37:58.683Z,16.42
2023-01-19T07:40:25.042Z,18.92
2023-01-19T07:42:51.492Z,19.30
2023-01-19T07:45:18.268Z,20.52
2023-01-19T07:47:46.883Z,21.38
2023-01-19T07:50:13.476Z,17.60
2023-01-19T07:52:40.020Z,21.63
2023-01-19T07:55:07.134Z,20.33
2023-01-19T07:57:33.613Z,23.48
2023-01-19T07:59:59.962Z,21.50
2023-01-19T08:02:26.504Z,20.98
2023-01-19T08:04:54.320Z,23.52
2023-01-19T08:07:20.789Z,25.63
2023-01-19T08:09:47.194Z,23.92
2023-01-19T08:12:13.633Z,25.13
2023-01-19T08:14:40.042Z,21.80
2023-01-19T08:17:06.453Z,25.98
2023-01-19T08:19:32.864Z,25.38
2023-01-19T08:22:00.660Z,30.92
2023-01-19T08:24:27.147Z,27.13
2023-01-19T08:26:58.019Z,27.67
2023-01-19T08:29:24.520Z,29.85
2023-01-19T08:31:50.971Z,28.98
2023-01-19T08:34:17.565Z,32.47
2023-01-19T08:36:43.947Z,32.40
2023-01-19T08:39:11.824Z,33.33
2023-01-19T08:41:38.310Z,35.70
2023-01-19T08:44:05.018Z,29.10
2023-01-19T08:46:31.466Z,36.60
2023-01-19T08:48:57.995Z,38.47
2023-01-19T08:51:24.384Z,38.97
2023-01-19T08:53:50.729Z,43.60
2023-01-19T08:56:20.647Z,40.67
2023-01-19T08:58:53.692Z,49.55
2023-01-19T09:01:29.892Z,47.55
2023-01-19T09:03:56.414Z,42.40
2023-01-19T09:06:22.884Z,48.95
2023-01-19T09:08:49.274Z,51.08
2023-01-19T09:11:16.068Z,49.65
2023-01-19T09:13:44.181Z,53.05
2023-01-19T09:16:10.722Z,47.72
2023-01-19T09:18:37.218Z,51.50
2023-01-19T09:21:03.780Z,52.88
2023-01-19T09:23:30.197Z,53.72
2023-01-19T09:25:58.009Z,50.65
2023-01-19T09:28:24.360Z,55.17
2023-01-19T09:30:52.212Z,48.40
2023-01-19T09:33:19.473Z,48.55
2023-01-19T09:35:46.570Z,56.22
2023-01-19T09:38:13.467Z,45.42
2023-01-19T09:40:42.332Z,48.20
2023-01-19T09:43:13.276Z,49.20
2023-01-19T09:45:43.533Z,54.65
2023-01-19T09:48:18.049Z,55.00
2023-01-19T09:50:44.538Z,54.85
2023-01-19T09:53:14.229Z,48.50
2023-01-19T09:55:41.235Z,46.88
2023-01-19T09:58:10.055Z,46.03
2023-01-19T10:00:36.479Z,51.30
2023-01-19T10:03:11.726Z,46.83
2023-01-19T10:05:42.240Z,49.28
2023-01-19T10:08:12.467Z,55.17
2023-01-19T10:10:40.573Z,47.40
2023-01-19T10:13:14.132Z,44.53
2023-01-19T10:15:45.011Z,47.00
2023-01-19T10:18:17.181Z,47.00
2023-01-19T10:20:48.427Z,48.63
2023-01-19T10:23:21.232Z,41.40
2023-01-19T10:25:47.767Z,38.78
2023-01-19T10:28:14.714Z,53.92
2023-01-19T10:30:42.555Z,46.47
2023-01-19T10:33:11.141Z,46.20
2023-01-19T10:35:37.540Z,39.30
2023-01-19T10:38:05.303Z,45.42
2023-01-19T10:40:33.617Z,43.75
2023-01-19T10:43:00.549Z,49.30
2023-01-19T10:45:28.437Z,45.22
2023-01-19T10:47:57.603Z,44.05
2023-01-19T10:50:25.406Z,46.05
2023-01-19T10:52:52.764Z,43.42
2023-01-19T10:55:27.840Z,45.70
2023-01-19T10:57:54.682Z,40.67
2023-01-19T11:00:29.647Z,44.85
2023-01-19T11:03:23.035Z,47.30
2023-01-19T11:05:49.635Z,42.53
2023-01-19T11:08:23.279Z,47.50
2023-01-19T11:10:56.249Z,44.72
2023-01-19T11:13:22.693Z,45.53
2023-01-19T11:15:52.365Z,44.90
2023-01-19T11:18:23.667Z,43.15
2023-01-19T11:20:51.193Z,40.10
2023-01-19T11:23:24.615Z,45.72
2023-01-19T11:25:51.581Z,40.83
2023-01-19T11:28:21.496Z,38.70
2023-01-19T11:30:55.079Z,42.80
2023-01-19T11:33:25.301Z,45.85
2023-01-19T11:36:01.231Z,29.98
2023-01-19T11:38:27.693Z,34.83
2023-01-19T11:40:54.884Z,32.90
2023-01-19T11:43:24.741Z,29.63
2023-01-19T11:45:51.511Z,28.10
2023-01-19T11:48:22.086Z,28.73
2023-01-19T11:50:49.199Z,30.80
2023-01-19T11:53:18.717Z,34.45
2023-01-19T11:55:48.745Z,26.48
2023-01-19T11:58:16.113Z,30.67
2023-01-19T12:00:45.717Z,30.85
2023-01-19T12:03:15.053Z,30.85
2023-01-19T12:05:44.080Z,25.17
2023-01-19T12:08:13.893Z,29.75
2023-01-19T12:10:43.370Z,34.47
2023-01-19T12:13:15.951Z,27.25
2023-01-19T12:15:44.825Z,30.73
2023-01-19T12:18:15.410Z,30.13
2023-01-19T12:20:43.098Z,32.42
2023-01-19T12:23:15.809Z,36.22
2023-01-19T12:28:09.689Z,31.15
2023-01-19T12:30:36.391Z,34.30
2023-01-19T12:33:31.411Z,33.47
2023-01-19T12:35:58.716Z,38.00
2023-01-19T12:38:46.214Z,33.47
2023-01-19T12:41:19.757Z,34.65
2023-01-19T12:43:46.476Z,37.42
2023-01-19T12:46:19.897Z,33.42
2023-01-19T12:48:47.811Z,39.47
2023-01-19T12:51:22.223Z,33.17
2023-01-19T12:53:51.225Z,32.05
2023-01-19T12:56:17.673Z,29.90
2023-01-19T12:58:47.551Z,33.15
2023-01-19T13:01:14.762Z,31.55
2023-01-19T13:03:42.553Z,29.38
2023-01-19T13:06:10.357Z,27.38
2023-01-19T13:08:56.093Z,33.00
2023-01-19T13:11:24.896Z,25.20
2023-01-19T13:14:25.884Z,29.80
2023-01-19T13:17:10.969Z,29.40
2023-01-19T13:19:43.758Z,23.30
2023-01-19T13:24:51.348Z,26.60
2023-01-19T13:27:19.232Z,29.17
2023-01-19T13:29:45.846Z,26.55
2023-01-19T13:32:13.819Z,24.35
2023-01-19T13:34:40.973Z,23.00
2023-01-19T13:37:12.851Z,34.58
2023-01-19T13:39:40.717Z,26.45
2023-01-19T13:42:12.831Z,24.50
2023-01-19T13:44:42.135Z,30.08
2023-01-19T13:47:12.299Z,30.00
2023-01-19T13:49:40.159Z,28.50
2023-01-19T13:52:07.728Z,30.98
2023-01-19T13:54:34.220Z,27.23
2023-01-19T13:57:00.585Z,29.30
2023-01-19T13:59:27.110Z,26.80
2023-01-19T14:02:04.015Z,28.23
2023-01-19T14:04:31.433Z,32.13
2023-01-19T14:07:00.777Z,29.67
2023-01-19T14:09:27.261Z,32.35
2023-01-19T14:12:12.419Z,28.27
2023-01-19T14:14:39.119Z,34.90
2023-01-19T14:17:15.138Z,29.92
2023-01-19T14:19:48.342Z,33.05
2023-01-19T14:22:14.779Z,29.65
2023-01-19T14:24:41.218Z,31.05
2023-01-19T14:27:09.485Z,30.15
2023-01-19T14:29:36.517Z,33.70
2023-01-19T14:32:11.696Z,27.50
2023-01-19T14:34:39.055Z,29.25
2023-01-19T14:37:13.120Z,29.40
2023-01-19T14:39:43.467Z,31.80
2023-01-19T14:42:16.056Z,27.38
2023-01-19T14:44:45.758Z,32.17
2023-01-19T14:47:21.349Z,32.67
2023-01-19T14:49:48.028Z,34.33
2023-01-19T14:52:20.232Z,30.83
2023-01-19T14:54:47.226Z,28.15
2023-01-19T14:57:13.916Z,28.00
2023-01-19T14:59:40.701Z,27.55
2023-01-19T15:02:07.502Z,27.42
2023-01-19T15:04:35.400Z,25.45
2023-01-19T15:07:01.844Z,33.70
2023-01-19T15:09:28.305Z,33.90
2023-01-19T15:11:54.673Z,29.92
2023-01-19T15:14:21.636Z,28.60
2023-01-19T15:16:48.531Z,31.98
2023-01-19T15:19:15.844Z,33.67
2023-01-19T15:21:43.893Z,35.05
2023-01-19T15:24:10.741Z,31.00
2023-01-19T15:26:37.856Z,30.98
2023-01-19T15:29:10.887Z,32.15
2023-01-19T15:31:37.296Z,27.67
2023-01-19T15:34:03.724Z,31.17
2023-01-19T15:36:30.132Z,35.00
2023-01-19T15:38:57.816Z,32.60
2023-01-19T15:41:25.987Z,32.20
2023-01-19T15:43:52.358Z,33.67
2023-01-19T15:46:19.258Z,32.08
2023-01-19T15:48:45.784Z,27.17
2023-01-19T15:51:12.447Z,31.00
2023-01-19T15:53:39.764Z,31.88
2023-01-19T15:56:11.645Z,29.83
2023-01-19T15:58:38.092Z,32.87
2023-01-19T16:01:04.647Z,32.25
2023-01-19T16:03:31.161Z,28.83
2023-01-19T16:05:59.562Z,33.47
2023-01-19T16:08:26.002Z,27.48
2023-01-19T16:10:52.434Z,31.67
2023-01-19T16:13:20.380Z,29.83
2023-01-19T16:15:46.876Z,33.40
2023-01-19T16:18:13.403Z,38.53
2023-01-19T16:20:39.835Z,30.52
2023-01-19T16:23:21.394Z,32.33
2023-01-19T16:25:55.034Z,28.15
2023-01-19T16:28:22.822Z,31.63
2023-01-19T16:30:49.267Z,30.10
2023-01-19T16:33:15.883Z,31.95
2023-01-19T16:35:42.274Z,27.27
2023-01-19T16:38:08.705Z,32.60
2023-01-19T16:40:35.213Z,31.50
2023-01-19T16:43:01.646Z,28.67
2023-01-19T16:45:29.401Z,30.92
2023-01-19T16:47:55.927Z,29.63
2023-01-19T16:50:22.297Z,31.48
2023-01-19T16:52:48.710Z,33.67
2023-01-19T16:55:15.120Z,34.20
2023-01-19T16:57:41.581Z,32.08
2023-01-19T17:00:09.075Z,32.55
2023-01-19T17:02:37.306Z,37.33
2023-01-19T17:05:03.943Z,33.35
2023-01-19T17:07:30.767Z,33.22
2023-01-19T17:09:57.176Z,36.10
2023-01-19T17:12:23.577Z,31.92
2023-01-19T17:14:49.976Z,34.47
2023-01-19T17:17:16.492Z,34.17
2023-01-19T17:19:44.254Z,34.45
2023-01-19T17:22:10.690Z,31.98
2023-01-19T17:24:37.228Z,31.60
2023-01-19T17:27:03.747Z,32.80
2023-01-19T17:29:30.181Z,34.53
2023-01-19T17:31:56.758Z,37.58
2023-01-19T17:34:23.273Z,33.17
2023-01-19T17:36:51.331Z,34.97
2023-01-19T17:39:17.714Z,34.63
2023-01-19T17:41:44.133Z,36.55
2023-01-19T17:44:10.796Z,35.53
2023-01-19T17:46:38.085Z,34.00
2023-01-19T17:49:05.477Z,35.72
2023-01-19T17:51:32.067Z,33.88
2023-01-19T17:53:59.925Z,33.00
2023-01-19T17:56:27.365Z,38.15
2023-01-19T17:58:53.951Z,37.15
2023-01-19T18:01:21.528Z,37.53
2023-01-19T18:03:48.323Z,32.97
2023-01-19T18:06:15.266Z,37.40
2023-01-19T18:08:42.674Z,37.95
2023-01-19T18:11:10.947Z,39.20
2023-01-19T18:13:39.290Z,36.25
2023-01-19T18:16:07.125Z,40.55
2023-01-19T18:18:33.625Z,35.25
2023-01-19T18:21:00.207Z,32.42
2023-01-19T18:23:26.611Z,35.22
2023-01-19T18:25:57.869Z,36.08
2023-01-19T18:28:25.722Z,37.40
2023-01-19T18:30:52.241Z,34.42
2023-01-19T18:33:18.701Z,31.63
2023-01-19T18:35:45.092Z,31.45
2023-01-19T18:38:11.711Z,33.38
2023-01-19T18:40:38.198Z,38.13
2023-01-19T18:43:04.597Z,35.58
2023-01-19T18:45:32.395Z,31.17
2023-01-19T18:48:00.340Z,39.45
2023-01-19T18:50:26.695Z,34.58
2023-01-19T18:52:53.126Z,34.13
2023-01-19T18:55:19.482Z,34.45
2023-01-19T18:57:46.187Z,33.50
2023-01-19T19:00:13.972Z,34.85
2023-01-19T19:05:16.454Z,32.08
2023-01-19T19:07:42.843Z,35.78
2023-01-19T19:10:09.909Z,34.20
2023-01-19T19:12:36.378Z,33.38
2023-01-19T19:15:03.146Z,32.33
2023-01-19T19:17:29.541Z,31.40
2023-01-19T19:19:55.962Z,35.00
2023-01-19T19:22:25.521Z,33.53
2023-01-19T19:24:52.271Z,32.95
2023-01-19T19:27:18.831Z,35.47
2023-01-19T19:29:45.829Z,32.88
2023-01-19T19:32:12.332Z,32.72
2023-01-19T19:34:38.965Z,30.98
2023-01-19T19:37:05.348Z,30.60
2023-01-19T19:39:33.203Z,31.05
2023-01-19T19:41:59.565Z,30.73
2023-01-19T19:44:26.088Z,31.92
2023-01-19T19:46:52.521Z,34.10
2023-01-19T19:49:18.971Z,31.98
2023-01-19T19:51:45.431Z,30.27
2023-01-19T19:54:11.871Z,36.80
2023-01-19T19:56:39.676Z,37.05
2023-01-19T19:59:06.062Z,34.53
2023-01-19T20:01:33.731Z,32.05
2023-01-19T20:04:04.591Z,34.25
2023-01-19T20:06:31.009Z,37.58
2023-01-19T20:08:57.421Z,38.70
2023-01-19T20:11:25.472Z,43.03
2023-01-19T20:13:53.473Z,38.33
2023-01-19T20:16:21.012Z,36.13
2023-01-19T20:18:48.664Z,38.13
2023-01-19T20:21:16.175Z,46.90
2023-01-19T20:23:43.124Z,40.60
2023-01-19T20:26:10.804Z,42.92
2023-01-19T20:28:37.513Z,40.97
2023-01-19T20:31:13.731Z,36.92
2023-01-19T20:33:40.709Z,39.42
2023-01-19T20:36:07.577Z,43.08
2023-01-19T20:38:34.172Z,38.53
2023-01-19T20:41:00.608Z,44.95
2023-01-19T20:43:27.047Z,40.28
2023-01-19T20:45:53.526Z,39.83
2023-01-19T20:48:21.356Z,44.00
2023-01-19T20:50:48.119Z,41.28
2023-01-19T20:53:14.552Z,43.63
2023-01-19T20:55:40.971Z,42.28
2023-01-19T20:58:07.346Z,40.42
2023-01-19T21:00:33.803Z,49.63
2023-01-19T21:03:00.251Z,45.00
2023-01-19T21:05:28.086Z,45.92
2023-01-19T21:07:54.552Z,38.42
2023-01-19T21:10:21.021Z,39.97
2023-01-19T21:12:47.485Z,49.15
2023-01-19T21:15:14.320Z,43.75
2023-01-19T21:17:40.917Z,46.83
2023-01-19T21:20:08.030Z,47.80
2023-01-19T21:22:35.813Z,40.88
2023-01-19T21:25:02.269Z,42.15
2023-01-19T21:27:28.756Z,44.65
2023-01-19T21:29:55.191Z,49.80
2023-01-19T21:32:21.559Z,43.47
2023-01-19T21:34:48.016Z,47.38
2023-01-19T21:37:14.432Z,49.30
2023-01-19T21:39:42.200Z,47.78
2023-01-19T21:42:08.577Z,47.55
2023-01-19T21:44:35.139Z,42.28
2023-01-19T21:47:01.558Z,47.03
2023-01-19T21:49:27.999Z,50.78
2023-01-19T21:51:54.423Z,45.70
2023-01-19T21:54:20.869Z,48.08
2023-01-19T21:56:48.667Z,48.17
2023-01-19T21:59:15.279Z,47.25
2023-01-19T22:01:42.112Z,47.05
2023-01-19T22:04:08.677Z,46.53
2023-01-19T22:06:35.119Z,49.78
2023-01-19T22:09:01.764Z,46.67
2023-01-19T22:11:28.631Z,44.17
2023-01-19T22:13:56.417Z,46.00
2023-01-19T22:16:23.205Z,50.30
2023-01-19T22:18:50.578Z,54.05
2023-01-19T22:21:18.152Z,44.88
2023-01-19T22:23:47.728Z,43.72
2023-01-19T22:26:14.162Z,48.55
2023-01-19T22:28:40.677Z,49.22
2023-01-19T22:31:09.430Z,45.03
2023-01-19T22:33:36.157Z,48.20
2023-01-19T22:36:09.679Z,59.40
2023-01-19T22:38:36.116Z,53.78
2023-01-19T22:41:10.639Z,53.33
2023-01-19T22:43:37.048Z,52.20
2023-01-19T22:46:04.226Z,50.88
2023-01-19T22:48:32.158Z,59.38
2023-01-19T22:50:58.500Z,54.08
2023-01-19T22:53:24.916Z,55.67
2023-01-19T22:55:51.379Z,56.58
2023-01-19T22:58:17.838Z,56.53
2023-01-19T23:00:44.200Z,57.72
2023-01-19T23:03:10.663Z,54.83
2023-01-19T23:05:38.448Z,59.33
2023-01-19T23:08:05.281Z,55.20
2023-01-19T23:10:31.682Z,58.35
2023-01-19T23:12:58.112Z,64.13
2023-01-19T23:15:24.553Z,61.63
2023-01-19T23:17:51.166Z,66.22
2023-01-19T23:20:17.736Z,62.17
2023-01-19T23:22:45.592Z,63.90
2023-01-19T23:25:12.387Z,59.88
2023-01-19T23:27:39.071Z,63.42
2023-01-19T23:30:06.031Z,62.35
2023-01-19T23:32:32.701Z,56.40
2023-01-19T23:34:59.095Z,65.38
2023-01-19T23:37:25.504Z,57.60
2023-01-19T23:39:53.221Z,62.75
2023-01-19T23:42:19.616Z,56.95
2023-01-19T23:44:46.001Z,64.35
2023-01-19T23:47:12.494Z,58.45
2023-01-19T23:49:38.863Z,65.57
2023-01-19T23:52:05.257Z,64.85
2023-01-19T23:54:31.609Z,61.55
2023-01-19T23:56:59.463Z,57.45
2023-01-19T23:59:25.823Z,60.13
